Time;durP1;ratioP1;P1;durP2;ratioP2;P2;SDS_P1;SDS_P2;PMS_P1;PMS_P2;Temp;Humidity;BMP_temperature;BMP_pressure;BME280_temperature;BME280_humidity;BME280_pressure;Samples;Min_cycle;Max_cycle;Signal;HPM_P1;HPM_P2
2021/03/21 00:01:05;;;;;;;0.82;0.60;;;10.60;73.10;;;;;;5070140;28;20069;-47
2021/03/21 00:03:31;;;;;;;0.82;0.63;;;10.60;73.20;;;;;;5072235;28;20666;-43
2021/03/21 00:05:57;;;;;;;1.45;0.90;;;10.60;73.10;;;;;;5066468;28;20065;-47
2021/03/21 00:08:26;;;;;;;0.80;0.80;;;10.60;73.20;;;;;;5070753;28;20048;-43
2021/03/21 00:10:55;;;;;;;2.15;0.93;;;10.60;73.10;;;;;;5058193;28;20148;-46
2021/03/21 00:13:22;;;;;;;1.25;0.85;;;10.60;73.20;;;;;;5053469;28;20045;-47
2021/03/21 00:15:49;;;;;;;0.50;0.50;;;10.60;73.20;;;;;;5053254;28;20052;-44
2021/03/21 00:18:15;;;;;;;1.05;0.80;;;10.60;73.20;;;;;;5052297;28;20048;-46
2021/03/21 00:20:42;;;;;;;1.42;0.60;;;10.60;73.20;;;;;;5052451;28;20478;-43
2021/03/21 00:23:08;;;;;;;1.33;0.60;;;10.60;73.20;;;;;;5052499;28;20505;-46
2021/03/21 00:25:35;;;;;;;0.52;0.52;;;10.60;73.10;;;;;;5068291;28;20555;-47
2021/03/21 00:28:04;;;;;;;0.60;0.60;;;10.60;73.20;;;;;;5052562;28;20049;-44
2021/03/21 00:30:34;;;;;;;0.90;0.60;;;10.60;73.20;;;;;;5071906;28;20493;-47
2021/03/21 00:33:00;;;;;;;0.93;0.80;;;10.60;73.20;;;;;;5062360;28;20052;-46
2021/03/21 00:35:26;;;;;;;4.22;1.85;;;10.60;73.20;;;;;;5056424;28;20055;-43
2021/03/21 00:38:00;;;;;;;0.68;0.68;;;10.60;73.20;;;;;;5066664;28;20056;-44
2021/03/21 00:40:27;;;;;;;0.82;0.80;;;10.60;73.20;;;;;;5075067;28;20052;-42
2021/03/21 00:42:53;;;;;;;1.48;0.70;;;10.60;73.20;;;;;;5056310;28;20132;-45
2021/03/21 00:45:20;;;;;;;1.00;0.90;;;10.60;73.20;;;;;;5056120;28;20076;-41
2021/03/21 00:47:46;;;;;;;1.45;0.80;;;10.60;73.20;;;;;;5065816;28;20131;-47
2021/03/21 00:50:33;;;;;;;1.23;0.85;;;10.60;73.20;;;;;;5070362;28;20069;-43
2021/03/21 00:52:59;;;;;;;1.15;0.68;;;10.60;73.20;;;;;;5064350;28;20048;-42
2021/03/21 00:55:25;;;;;;;1.38;1.00;;;10.60;73.20;;;;;;5056168;28;20106;-43
2021/03/21 00:57:54;;;;;;;1.45;1.00;;;10.60;73.20;;;;;;5057020;28;20367;-40
2021/03/21 01:00:30;;;;;;;0.93;0.90;;;10.60;73.20;;;;;;5055944;28;20120;-42
2021/03/21 01:02:56;;;;;;;1.50;1.33;;;10.60;73.20;;;;;;5056817;28;20052;-43
2021/03/21 01:05:33;;;;;;;1.17;0.80;;;10.60;73.20;;;;;;5038419;28;20048;-43
2021/03/21 01:08:00;;;;;;;2.15;0.90;;;10.60;73.20;;;;;;5056067;28;20489;-44
2021/03/21 01:10:36;;;;;;;1.20;1.10;;;10.60;73.20;;;;;;5071882;28;20044;-42
2021/03/21 01:13:02;;;;;;;1.63;1.10;;;10.60;73.20;;;;;;5075744;28;20053;-43
2021/03/21 01:15:30;;;;;;;0.98;0.80;;;10.60;73.20;;;;;;5057987;28;20122;-42
2021/03/21 01:17:56;;;;;;;1.48;0.90;;;10.60;73.20;;;;;;5055228;28;20107;-41
2021/03/21 01:20:24;;;;;;;1.23;0.90;;;10.60;73.20;;;;;;5055990;28;20123;-43
2021/03/21 01:22:50;;;;;;;1.45;1.35;;;10.60;73.30;;;;;;5061901;28;20106;-42
2021/03/21 01:25:24;;;;;;;0.80;0.68;;;10.60;73.20;;;;;;5063443;28;20048;-41
2021/03/21 01:27:50;;;;;;;1.67;1.00;;;10.60;73.20;;;;;;5071872;28;20447;-43
2021/03/21 01:30:17;;;;;;;2.17;0.98;;;10.60;73.90;;;;;;5063484;28;20044;-44
2021/03/21 01:32:44;;;;;;;1.67;0.90;;;10.60;73.30;;;;;;5054848;28;20068;-43
2021/03/21 01:35:11;;;;;;;1.13;1.00;;;10.60;73.30;;;;;;5069411;28;20083;-42
2021/03/21 01:37:37;;;;;;;0.80;0.80;;;10.60;73.30;;;;;;5074935;28;20409;-40
2021/03/21 01:40:08;;;;;;;1.38;0.82;;;10.60;73.30;;;;;;5074589;28;20078;-41
2021/03/21 01:42:42;;;;;;;1.10;0.80;;;10.60;73.30;;;;;;5074174;28;20059;-41
2021/03/21 01:45:36;;;;;;;2.00;1.00;;;10.60;73.30;;;;;;5075053;28;20044;-41
2021/03/21 01:48:27;;;;;;;1.00;0.90;;;10.60;73.30;;;;;;5074629;28;20049;-41
2021/03/21 01:50:56;;;;;;;1.50;0.93;;;10.60;73.30;;;;;;4987288;28;20155;-40
2021/03/21 01:53:24;;;;;;;1.75;0.85;;;10.60;73.30;;;;;;4973983;28;20121;-43
2021/03/21 01:55:51;;;;;;;1.15;1.00;;;10.60;73.30;;;;;;4973816;28;20062;-40
2021/03/21 01:58:19;;;;;;;1.23;0.68;;;10.50;73.20;;;;;;4974153;28;20142;-40
2021/03/21 02:00:45;;;;;;;1.40;0.77;;;10.60;73.30;;;;;;4974091;28;20054;-39
2021/03/21 02:03:12;;;;;;;1.00;0.80;;;10.60;73.30;;;;;;4974504;28;20141;-41
2021/03/21 02:05:39;;;;;;;1.35;0.90;;;10.60;73.30;;;;;;4974738;28;20047;-42
2021/03/21 02:08:39;;;;;;;1.38;0.80;;;10.60;73.30;;;;;;4973939;28;20243;-43
2021/03/21 02:11:17;;;;;;;1.65;0.82;;;10.60;73.30;;;;;;4973707;28;20042;-40
2021/03/21 02:14:05;;;;;;;1.48;0.90;;;10.60;73.30;;;;;;4974672;28;20137;-42
2021/03/21 02:16:39;;;;;;;1.83;0.88;;;10.60;73.30;;;;;;4974840;28;20105;-41
2021/03/21 02:19:33;;;;;;;1.13;0.95;;;10.60;73.30;;;;;;4992800;28;20054;-41
2021/03/21 02:22:05;;;;;;;1.88;1.00;;;10.60;73.30;;;;;;4975536;28;20064;-42
2021/03/21 02:24:49;;;;;;;0.98;0.88;;;10.60;73.70;;;;;;4974376;28;20078;-42
2021/03/21 02:27:43;;;;;;;0.93;0.80;;;10.60;73.40;;;;;;4990141;28;20049;-43
2021/03/21 02:30:12;;;;;;;0.70;0.70;;;10.60;73.30;;;;;;5054035;28;20497;-41
2021/03/21 02:33:04;;;;;;;1.67;0.90;;;10.60;73.40;;;;;;5055145;28;20044;-43
2021/03/21 02:35:57;;;;;;;0.95;0.90;;;10.60;73.30;;;;;;5049656;28;20115;-43
2021/03/21 02:38:34;;;;;;;3.33;1.02;;;10.60;73.30;;;;;;5067129;28;20133;-45
2021/03/21 02:41:07;;;;;;;1.35;0.90;;;10.60;73.30;;;;;;5074332;28;20048;-44
2021/03/21 02:43:40;;;;;;;1.63;0.88;;;10.60;73.30;;;;;;5042806;28;20053;-45
2021/03/21 02:46:25;;;;;;;1.67;0.70;;;10.60;73.30;;;;;;5073841;28;20114;-46
2021/03/21 02:49:02;;;;;;;1.50;0.90;;;10.60;73.30;;;;;;5061569;28;20056;-45
2021/03/21 02:51:35;;;;;;;2.42;0.98;;;10.60;73.30;;;;;;5053725;28;20497;-44
2021/03/21 02:54:11;;;;;;;1.13;1.02;;;10.60;73.30;;;;;;5053721;28;20045;-41
2021/03/21 02:56:42;;;;;;;1.27;0.82;;;10.60;73.30;;;;;;5053602;28;20048;-47
2021/03/21 02:59:14;;;;;;;1.27;0.90;;;10.60;73.30;;;;;;5053653;28;20048;-45
2021/03/21 03:01:54;;;;;;;1.58;0.90;;;10.60;73.40;;;;;;5053585;28;20056;-45
2021/03/21 03:04:40;;;;;;;1.05;0.95;;;10.60;73.40;;;;;;5054406;28;20146;-45
2021/03/21 03:07:09;;;;;;;2.55;0.90;;;10.60;73.40;;;;;;5053455;28;20090;-47
2021/03/21 03:09:58;;;;;;;2.05;0.95;;;10.60;73.40;;;;;;5067477;28;20133;-42
2021/03/21 03:12:32;;;;;;;2.33;0.88;;;10.60;73.50;;;;;;5073339;28;20119;-46
2021/03/21 03:15:01;;;;;;;0.73;0.73;;;10.60;73.40;;;;;;5071672;28;20055;-47
2021/03/21 03:17:38;;;;;;;0.80;0.75;;;10.60;73.50;;;;;;5072679;28;20044;-42
2021/03/21 03:20:06;;;;;;;2.85;1.00;;;10.60;73.40;;;;;;5067340;28;20489;-44
2021/03/21 03:22:40;;;;;;;1.05;0.80;;;10.60;73.40;;;;;;5053321;28;20049;-47
2021/03/21 03:25:27;;;;;;;1.77;0.82;;;10.60;73.40;;;;;;5054265;28;20048;-43
2021/03/21 03:28:02;;;;;;;0.88;0.80;;;10.60;73.40;;;;;;5053299;28;20053;-47
2021/03/21 03:30:36;;;;;;;1.45;0.90;;;10.60;73.40;;;;;;5053109;28;20073;-43
2021/03/21 03:33:04;;;;;;;1.25;0.82;;;10.60;73.40;;;;;;5066657;28;20430;-44
2021/03/21 03:35:31;;;;;;;0.80;0.80;;;10.60;73.40;;;;;;5071066;28;20076;-42
2021/03/21 03:37:57;;;;;;;0.88;0.73;;;10.60;73.40;;;;;;5073012;28;20045;-45
2021/03/21 03:40:23;;;;;;;2.33;1.13;;;10.60;73.40;;;;;;5071068;28;20455;-48
2021/03/21 03:43:04;;;;;;;1.77;0.93;;;10.60;73.40;;;;;;5072874;28;20045;-41
2021/03/21 03:45:51;;;;;;;0.90;0.85;;;10.60;73.40;;;;;;5070773;28;20052;-47
2021/03/21 03:48:26;;;;;;;1.30;0.80;;;10.60;73.50;;;;;;5056793;28;20403;-47
2021/03/21 03:50:59;;;;;;;2.10;1.00;;;10.60;73.50;;;;;;5053151;28;20512;-42
2021/03/21 03:53:47;;;;;;;1.02;0.90;;;10.60;73.40;;;;;;5072722;28;20086;-41
2021/03/21 03:56:30;;;;;;;1.77;0.80;;;10.60;73.40;;;;;;5070354;28;20056;-45
2021/03/21 03:59:18;;;;;;;1.27;0.90;;;10.60;73.40;;;;;;5072305;28;20048;-44
2021/03/21 04:01:57;;;;;;;2.38;0.90;;;10.60;73.40;;;;;;5069188;28;20045;-47
2021/03/21 04:04:49;;;;;;;2.55;1.15;;;10.60;73.50;;;;;;5052890;28;20132;-39
2021/03/21 04:08:00;;;;;;;2.15;1.17;;;10.60;73.40;;;;;;5053662;28;20045;-39
2021/03/21 04:10:41;;;;;;;1.95;0.77;;;10.60;73.40;;;;;;5065038;28;20087;-43
2021/03/21 04:13:16;;;;;;;2.25;0.95;;;10.60;73.50;;;;;;5057654;28;20132;-41
2021/03/21 04:15:49;;;;;;;1.50;0.80;;;10.60;73.40;;;;;;5052651;28;20076;-42
2021/03/21 04:18:30;;;;;;;1.08;0.68;;;10.60;73.40;;;;;;5053386;28;20072;-40
2021/03/21 04:21:02;;;;;;;0.77;0.65;;;10.60;73.50;;;;;;5052439;28;20495;-42
2021/03/21 04:23:52;;;;;;;2.35;0.80;;;10.60;73.50;;;;;;5051870;28;20128;-42
2021/03/21 04:26:23;;;;;;;2.13;0.90;;;10.60;73.50;;;;;;5061386;28;20076;-43
2021/03/21 04:28:54;;;;;;;1.00;0.77;;;10.60;74.10;;;;;;5070429;28;20045;-42
2021/03/21 04:31:20;;;;;;;0.85;0.60;;;10.60;73.50;;;;;;5072231;28;20400;-41
2021/03/21 04:33:50;;;;;;;1.08;0.73;;;10.60;73.50;;;;;;5070680;28;20094;-38
2021/03/21 04:36:29;;;;;;;1.63;1.00;;;10.60;73.40;;;;;;5053653;28;20477;-42
2021/03/21 04:38:59;;;;;;;1.15;0.75;;;10.60;74.10;;;;;;5052938;28;20497;-41
2021/03/21 04:41:42;;;;;;;1.67;0.98;;;10.60;73.50;;;;;;5053870;28;20056;-40
2021/03/21 04:44:16;;;;;;;3.13;1.15;;;10.60;73.50;;;;;;5072311;28;20079;-41
2021/03/21 04:46:51;;;;;;;1.60;0.80;;;10.60;73.40;;;;;;5069145;28;20072;-41
2021/03/21 04:49:19;;;;;;;2.42;1.08;;;10.60;73.50;;;;;;5053380;28;20063;-41
2021/03/21 04:51:46;;;;;;;1.25;0.60;;;10.60;73.50;;;;;;5051926;28;20414;-41
2021/03/21 04:54:27;;;;;;;0.70;0.70;;;10.60;73.50;;;;;;5051871;28;20060;-41
2021/03/21 04:57:16;;;;;;;1.05;0.80;;;10.60;73.40;;;;;;5057101;28;20056;-39
2021/03/21 04:59:44;;;;;;;1.85;0.80;;;10.60;73.40;;;;;;5058329;28;20473;-42
2021/03/21 05:02:28;;;;;;;1.55;1.02;;;10.60;73.50;;;;;;5065861;28;20437;-41
2021/03/21 05:04:59;;;;;;;1.88;0.73;;;10.60;73.40;;;;;;5071917;28;20075;-41
2021/03/21 05:08:05;;;;;;;1.67;1.00;;;10.60;73.40;;;;;;5055771;28;20040;-43
2021/03/21 05:10:41;;;;;;;1.27;0.70;;;10.60;73.40;;;;;;4952616;28;20063;-43
2021/03/21 05:13:27;;;;;;;;;;;10.60;73.40;;;;;;4966357;28;20059;-44
2021/03/21 05:16:01;;;;;;;0.80;0.80;;;10.60;73.50;;;;;;4970915;28;19957;-45
2021/03/21 05:18:29;;;;;;;2.78;1.13;;;10.60;73.50;;;;;;4957321;28;20437;-43
2021/03/21 05:21:01;;;;;;;1.48;0.80;;;10.60;73.40;;;;;;4956367;28;20492;-44
2021/03/21 05:23:59;;;;;;;2.50;0.98;;;10.60;73.40;;;;;;4955306;29;20495;-42
2021/03/21 05:26:36;;;;;;;2.15;0.95;;;10.60;73.50;;;;;;4965517;28;20042;-41
2021/03/21 05:29:39;;;;;;;2.53;0.95;;;10.60;73.40;;;;;;4960444;28;20058;-41
2021/03/21 05:32:06;;;;;;;1.30;0.77;;;10.60;73.40;;;;;;4955585;28;20055;-41
2021/03/21 05:34:32;;;;;;;1.88;0.90;;;10.60;73.40;;;;;;4955144;28;20051;-41
2021/03/21 05:37:09;;;;;;;1.55;0.80;;;10.60;73.40;;;;;;4954221;28;20042;-41
2021/03/21 05:40:11;;;;;;;1.45;0.80;;;10.60;73.40;;;;;;4953685;29;20079;-41
2021/03/21 05:42:57;;;;;;;1.15;0.80;;;10.60;73.40;;;;;;4954608;29;20058;-42
2021/03/21 05:45:50;;;;;;;3.33;1.05;;;10.60;73.50;;;;;;4974012;28;20182;-41
2021/03/21 05:48:44;;;;;;;2.28;0.90;;;10.60;73.40;;;;;;5055209;28;20052;-42
2021/03/21 05:51:47;;;;;;;1.08;0.90;;;10.60;73.40;;;;;;5035180;28;20085;-42
2021/03/21 05:54:27;;;;;;;1.88;0.90;;;10.60;73.40;;;;;;5054155;28;20045;-41
2021/03/21 05:57:32;;;;;;;2.75;0.70;;;10.60;73.40;;;;;;5054528;28;20048;-43
2021/03/21 06:00:08;;;;;;;3.42;0.93;;;10.60;73.40;;;;;;5054591;28;20037;-42
2021/03/21 06:02:52;;;;;;;;;;;10.60;73.50;;;;;;5054784;28;20045;-43
2021/03/21 06:05:51;;;;;;;3.17;1.00;;;10.60;73.40;;;;;;5034963;28;20527;-41
2021/03/21 06:08:53;;;;;;;2.58;1.13;;;10.60;73.50;;;;;;5051235;28;20049;-42
2021/03/21 06:11:41;;;;;;;2.55;0.95;;;10.60;73.50;;;;;;5054240;28;20052;-39
2021/03/21 06:14:44;;;;;;;2.33;0.98;;;10.60;73.40;;;;;;5042394;28;20080;-44
2021/03/21 06:17:31;;;;;;;0.95;0.82;;;10.60;73.40;;;;;;5054645;28;20052;-42
2021/03/21 06:20:02;;;;;;;3.08;0.82;;;10.60;73.40;;;;;;5054718;28;20045;-44
2021/03/21 06:22:45;;;;;;;1.42;1.10;;;10.60;73.40;;;;;;5036528;28;20469;-41
2021/03/21 06:25:39;;;;;;;1.92;1.00;;;10.60;73.40;;;;;;5053889;28;20489;-44
2021/03/21 06:28:31;;;;;;;2.28;1.20;;;10.60;73.40;;;;;;5052953;28;20421;-46
2021/03/21 06:31:30;;;;;;;1.90;1.10;;;10.60;73.40;;;;;;5053624;28;20040;-41
2021/03/21 06:34:33;;;;;;;2.22;1.10;;;10.60;73.40;;;;;;5054341;28;20045;-44
2021/03/21 06:37:26;;;;;;;3.83;1.20;;;10.60;73.40;;;;;;5053991;28;20049;-45
2021/03/21 06:40:26;;;;;;;2.67;1.10;;;10.60;74.10;;;;;;5053284;28;20053;-44
2021/03/21 06:43:09;;;;;;;1.85;1.05;;;10.60;73.40;;;;;;5041268;28;20123;-43
2021/03/21 06:46:04;;;;;;;3.13;0.98;;;10.60;73.40;;;;;;5053916;28;20515;-41
2021/03/21 06:48:58;;;;;;;1.45;1.00;;;10.60;73.40;;;;;;5053954;28;20052;-46
2021/03/21 06:52:00;;;;;;;3.08;1.20;;;10.60;73.40;;;;;;5053951;28;20056;-44
2021/03/21 06:55:03;;;;;;;1.50;0.88;;;10.60;73.40;;;;;;5053745;28;20045;-45
2021/03/21 06:57:56;;;;;;;2.08;0.95;;;10.60;73.30;;;;;;5053370;28;20045;-46
2021/03/21 07:00:43;;;;;;;4.32;1.17;;;10.60;73.40;;;;;;5053577;28;20049;-45
2021/03/21 07:03:39;;;;;;;2.95;1.00;;;10.60;73.40;;;;;;5053570;28;20080;-41
2021/03/21 07:06:26;;;;;;;1.98;1.00;;;10.60;73.40;;;;;;5053391;28;20057;-44
2021/03/21 07:09:09;;;;;;;2.58;0.95;;;10.60;73.40;;;;;;5053455;28;20048;-41
2021/03/21 07:12:09;;;;;;;4.07;1.15;;;10.60;73.30;;;;;;5053502;28;20432;-42
2021/03/21 07:14:53;;;;;;;2.92;1.45;;;10.60;73.40;;;;;;5053155;28;20512;-44
2021/03/21 07:17:41;;;;;;;2.20;1.15;;;10.60;73.30;;;;;;5053198;28;20040;-45
2021/03/21 07:20:24;;;;;;;3.35;1.27;;;10.60;73.30;;;;;;5053465;28;20087;-44
2021/03/21 07:23:08;;;;;;;3.17;1.02;;;10.60;73.40;;;;;;5052858;28;20498;-41
2021/03/21 07:26:19;;;;;;;3.05;1.30;;;10.60;73.40;;;;;;5052828;28;20481;-41
2021/03/21 07:29:14;;;;;;;2.75;1.15;;;10.60;73.30;;;;;;4952575;29;20047;-39
2021/03/21 07:32:20;;;;;;;3.42;1.30;;;10.60;73.40;;;;;;4953026;29;20099;-38
2021/03/21 07:35:12;;;;;;;2.28;0.95;;;10.60;73.30;;;;;;4953111;29;20188;-40
2021/03/21 07:37:47;;;;;;;2.65;1.10;;;10.60;73.30;;;;;;4952884;29;20051;-42
2021/03/21 07:40:25;;;;;;;3.15;1.33;;;10.60;73.40;;;;;;4968911;28;20054;-38
2021/03/21 07:42:56;;;;;;;3.40;1.70;;;10.60;73.40;;;;;;4962233;28;20539;-38
2021/03/21 07:45:28;;;;;;;7.47;1.55;;;10.60;73.40;;;;;;4959221;28;20539;-39
2021/03/21 07:48:31;;;;;;;6.32;1.42;;;10.60;73.40;;;;;;4971262;28;20098;-38
2021/03/21 07:51:15;;;;;;;2.65;0.90;;;10.60;73.40;;;;;;4962100;28;20496;-41
2021/03/21 07:54:06;;;;;;;3.28;1.05;;;10.60;73.30;;;;;;4971846;28;20062;-38
2021/03/21 07:56:43;;;;;;;2.50;0.80;;;10.60;73.40;;;;;;4972032;28;20061;-39
2021/03/21 07:59:20;;;;;;;3.15;1.15;;;10.60;73.30;;;;;;4971591;28;20427;-39
2021/03/21 08:01:46;;;;;;;4.55;1.30;;;10.60;73.40;;;;;;4971462;28;20234;-39
2021/03/21 08:04:30;;;;;;;2.95;1.30;;;10.60;73.30;;;;;;4972055;28;20129;-39
2021/03/21 08:07:01;;;;;;;2.92;1.23;;;10.60;73.30;;;;;;5072649;28;20071;-39
2021/03/21 08:09:37;;;;;;;2.38;1.20;;;10.60;73.30;;;;;;5072979;28;20455;-39
2021/03/21 08:12:18;;;;;;;3.33;1.23;;;10.60;73.30;;;;;;5072677;28;20048;-38
2021/03/21 08:14:48;;;;;;;2.50;0.93;;;10.60;73.30;;;;;;5071003;28;20052;-37
2021/03/21 08:17:21;;;;;;;2.95;1.20;;;10.60;73.40;;;;;;5063132;28;20040;-38
2021/03/21 08:19:51;;;;;;;3.38;1.20;;;10.60;73.30;;;;;;5058520;28;20069;-40
2021/03/21 08:22:22;;;;;;;5.30;1.52;;;10.60;73.30;;;;;;5057923;28;20524;-38
2021/03/21 08:24:48;;;;;;;4.18;1.20;;;10.60;73.30;;;;;;5052594;28;20045;-42
2021/03/21 08:27:24;;;;;;;2.72;1.20;;;10.60;73.40;;;;;;5052749;28;20049;-41
2021/03/21 08:30:04;;;;;;;4.63;1.67;;;10.60;73.30;;;;;;5052285;28;20114;-41
2021/03/21 08:32:33;;;;;;;2.28;0.90;;;10.60;73.30;;;;;;5052287;28;20497;-41
2021/03/21 08:35:17;;;;;;;3.70;1.33;;;10.60;73.30;;;;;;5052378;28;20045;-42
2021/03/21 08:37:49;;;;;;;3.15;1.40;;;10.60;73.30;;;;;;5052290;28;20516;-42
2021/03/21 08:40:30;;;;;;;2.78;1.33;;;10.60;73.30;;;;;;5052309;28;20072;-42
2021/03/21 08:43:11;;;;;;;4.22;1.40;;;10.60;73.20;;;;;;5055694;28;20521;-44
2021/03/21 08:45:39;;;;;;;4.05;1.52;;;10.60;73.30;;;;;;5071952;28;20041;-44
2021/03/21 08:48:21;;;;;;;3.05;1.17;;;10.60;73.30;;;;;;5072344;28;20493;-44
2021/03/21 08:50:50;;;;;;;4.20;1.52;;;10.60;73.30;;;;;;5072112;28;20045;-42
2021/03/21 08:53:27;;;;;;;5.10;2.08;;;10.60;73.30;;;;;;5076029;28;20055;-42
2021/03/21 08:56:16;;;;;;;2.85;1.00;;;10.60;73.30;;;;;;5075856;28;20048;-43
2021/03/21 08:58:42;;;;;;;6.50;1.52;;;10.60;73.30;;;;;;5076329;28;20076;-43
2021/03/21 09:01:21;;;;;;;3.47;1.27;;;10.60;73.20;;;;;;5075814;28;20052;-42
2021/03/21 09:03:48;;;;;;;6.35;1.77;;;10.60;73.20;;;;;;5075710;28;20080;-42
2021/03/21 09:06:31;;;;;;;2.50;1.33;;;10.60;73.20;;;;;;5075902;28;20049;-41
2021/03/21 09:09:39;;;;;;;3.75;1.10;;;10.60;73.20;;;;;;5075929;28;20495;-43
2021/03/21 09:12:22;;;;;;;3.88;1.75;;;10.60;73.20;;;;;;5075583;28;20513;-44
2021/03/21 09:14:49;;;;;;;6.80;1.85;;;10.60;73.20;;;;;;5075641;28;20048;-43
2021/03/21 09:17:23;;;;;;;4.10;1.80;;;10.60;73.20;;;;;;5071043;28;20095;-42
2021/03/21 09:19:57;;;;;;;3.35;1.30;;;10.60;73.20;;;;;;5056022;28;20077;-42
2021/03/21 09:22:40;;;;;;;3.22;1.50;;;10.60;73.20;;;;;;5055672;28;20075;-41
2021/03/21 09:25:15;;;;;;;5.05;1.50;;;10.60;73.20;;;;;;5055715;28;20049;-41
2021/03/21 09:27:43;;;;;;;3.85;1.20;;;10.60;73.20;;;;;;5055819;28;20068;-43
2021/03/21 09:30:40;;;;;;;2.83;1.40;;;10.60;73.20;;;;;;5055741;28;20041;-41
2021/03/21 09:33:20;;;;;;;4.05;1.55;;;10.60;73.20;;;;;;5055176;28;20072;-38
2021/03/21 09:36:06;;;;;;;4.32;1.83;;;10.60;73.20;;;;;;5037595;28;20041;-40
2021/03/21 09:38:36;;;;;;;2.60;1.15;;;10.60;73.20;;;;;;5037134;28;20057;-42
2021/03/21 09:41:10;;;;;;;4.70;1.42;;;10.60;73.20;;;;;;5055633;28;20049;-42
2021/03/21 09:43:38;;;;;;;5.70;1.77;;;10.60;73.20;;;;;;5055187;28;20126;-42
2021/03/21 09:46:42;;;;;;;5.43;1.52;;;10.70;73.30;;;;;;5055230;28;20045;-42
2021/03/21 09:49:23;;;;;;;5.68;1.52;;;10.60;73.80;;;;;;5054957;28;20056;-40
2021/03/21 09:52:17;;;;;;;3.58;1.40;;;10.60;73.20;;;;;;5055304;28;20053;-42
2021/03/21 09:55:09;;;;;;;2.95;1.20;;;10.60;73.20;;;;;;4973835;28;20611;-46
2021/03/21 09:58:09;;;;;;;4.65;1.30;;;10.60;73.10;;;;;;4973963;28;20110;-43
2021/03/21 10:00:37;;;;;;;4.82;1.38;;;10.70;73.20;;;;;;4973882;28;20051;-40
2021/03/21 10:03:21;;;;;;;7.10;1.83;;;10.60;73.10;;;;;;4973287;28;20134;-41
2021/03/21 10:06:09;;;;;;;2.38;1.15;;;10.60;73.10;;;;;;4973921;28;20054;-42
2021/03/21 10:09:13;;;;;;;5.50;1.52;;;10.70;73.20;;;;;;4973943;28;20053;-40
2021/03/21 10:11:45;;;;;;;4.35;1.60;;;10.60;73.10;;;;;;4916253;29;20052;-42
2021/03/21 10:14:26;;;;;;;3.67;1.45;;;10.60;73.10;;;;;;4930437;29;20050;-39
2021/03/21 10:16:56;;;;;;;4.47;1.50;;;10.70;73.20;;;;;;4934379;29;20090;-41
2021/03/21 10:19:56;;;;;;;4.25;1.63;;;10.70;73.20;;;;;;4934668;29;20428;-42
2021/03/21 10:22:24;;;;;;;3.13;1.35;;;10.70;73.20;;;;;;4935199;29;20048;-40
2021/03/21 10:25:20;;;;;;;3.65;1.52;;;10.70;73.20;;;;;;4935137;29;20142;-41
2021/03/21 10:27:49;;;;;;;2.53;1.30;;;10.70;73.20;;;;;;4934999;29;20047;-41
2021/03/21 10:30:25;;;;;;;4.07;1.23;;;10.70;73.20;;;;;;4935140;29;20055;-42
2021/03/21 10:32:59;;;;;;;5.28;1.48;;;10.70;73.20;;;;;;4992898;28;20171;-42
2021/03/21 10:35:25;;;;;;;4.70;1.40;;;10.70;73.20;;;;;;4992566;28;20050;-43
2021/03/21 10:37:58;;;;;;;4.05;1.58;;;10.70;73.20;;;;;;4992784;28;20053;-41
2021/03/21 10:40:24;;;;;;;4.38;1.40;;;10.70;73.10;;;;;;4992804;28;20061;-44
2021/03/21 10:42:56;;;;;;;6.05;1.80;;;10.70;73.10;;;;;;4992644;28;20066;-42
2021/03/21 10:45:34;;;;;;;8.23;1.85;;;10.70;73.20;;;;;;5018382;28;20122;-43
2021/03/21 10:48:14;;;;;;;3.55;1.33;;;10.70;73.10;;;;;;5054143;28;20144;-43
2021/03/21 10:51:03;;;;;;;5.38;1.50;;;10.70;73.10;;;;;;5053821;28;20063;-44
2021/03/21 10:53:40;;;;;;;4.82;1.58;;;10.70;73.10;;;;;;5053375;28;20049;-39
2021/03/21 10:56:23;;;;;;;6.68;1.60;;;10.70;73.20;;;;;;5054022;28;20053;-42
2021/03/21 10:59:06;;;;;;;5.28;1.80;;;10.70;73.10;;;;;;5053724;28;20053;-44
2021/03/21 11:01:34;;;;;;;4.80;1.70;;;10.70;73.10;;;;;;5053832;28;20053;-43
2021/03/21 11:04:12;;;;;;;6.72;1.98;;;10.70;73.10;;;;;;5053704;28;20075;-43
2021/03/21 11:06:53;;;;;;;5.50;1.63;;;10.70;73.10;;;;;;5053950;28;20099;-43
2021/03/21 11:09:20;;;;;;;5.22;1.80;;;10.70;73.10;;;;;;5053914;28;20131;-44
2021/03/21 11:11:49;;;;;;;4.05;1.65;;;10.70;73.10;;;;;;5059264;28;20045;-45
2021/03/21 11:14:26;;;;;;;3.65;1.45;;;10.70;73.10;;;;;;5073267;28;20059;-42
2021/03/21 11:17:01;;;;;;;4.38;1.83;;;10.70;73.00;;;;;;5073565;28;20053;-45
2021/03/21 11:19:32;;;;;;;3.58;2.03;;;10.70;73.10;;;;;;5073324;28;20060;-45
2021/03/21 11:21:58;;;;;;;4.93;1.50;;;10.70;73.00;;;;;;5073152;28;20170;-45
2021/03/21 11:24:32;;;;;;;7.18;1.60;;;10.70;73.00;;;;;;5073455;28;20170;-44
2021/03/21 11:27:00;;;;;;;3.15;2.42;;;10.70;73.00;;;;;;5073287;28;20045;-43
2021/03/21 11:29:34;;;;;;;4.88;1.52;;;10.80;73.10;;;;;;5073402;28;20154;-45
2021/03/21 11:32:29;;;;;;;4.75;1.40;;;10.70;73.00;;;;;;5073207;28;20521;-42
2021/03/21 11:35:00;;;;;;;4.45;1.63;;;10.70;73.00;;;;;;5073074;28;20048;-40
2021/03/21 11:37:30;;;;;;;4.25;2.00;;;10.70;73.00;;;;;;5064665;28;20462;-40
2021/03/21 11:40:04;;;;;;;5.38;1.77;;;10.70;73.40;;;;;;5069199;28;20634;-42
2021/03/21 11:42:43;;;;;;;6.82;2.00;;;10.70;73.00;;;;;;5073376;28;20055;-43
2021/03/21 11:45:22;;;;;;;7.10;1.73;;;10.70;73.00;;;;;;5073106;28;20098;-41
2021/03/21 11:47:57;;;;;;;4.15;2.17;;;10.70;73.00;;;;;;5055344;28;20076;-44
2021/03/21 11:50:26;;;;;;;5.95;1.77;;;10.70;73.00;;;;;;5072764;28;20098;-42
2021/03/21 11:52:52;;;;;;;5.95;1.80;;;10.80;73.00;;;;;;5072910;28;20140;-43
2021/03/21 11:55:21;;;;;;;3.53;1.48;;;10.70;73.00;;;;;;5073033;28;20052;-43
2021/03/21 11:57:55;;;;;;;3.47;1.52;;;10.70;73.00;;;;;;5073110;28;20048;-40
2021/03/21 12:00:31;;;;;;;4.25;2.17;;;10.70;73.00;;;;;;5072799;28;20051;-37
2021/03/21 12:03:09;;;;;;;4.03;1.45;;;10.70;72.90;;;;;;5072628;28;20508;-40
2021/03/21 12:05:38;;;;;;;4.53;1.60;;;10.70;72.90;;;;;;5072914;28;20049;-47
2021/03/21 12:08:24;;;;;;;6.65;1.52;;;10.70;72.90;;;;;;5072747;28;20045;-39
2021/03/21 12:10:51;;;;;;;4.60;1.80;;;10.80;73.00;;;;;;5072993;28;20130;-45
2021/03/21 12:13:36;;;;;;;4.22;1.55;;;10.70;72.90;;;;;;5054112;28;20045;-43
2021/03/21 12:16:26;;;;;;;4.43;1.58;;;10.80;73.00;;;;;;5052823;28;20053;-44
2021/03/21 12:18:57;;;;;;;2.85;1.70;;;10.80;73.00;;;;;;5052454;28;20049;-44
2021/03/21 12:21:24;;;;;;;5.93;2.58;;;10.80;73.00;;;;;;5065210;28;20064;-43
2021/03/21 12:24:01;;;;;;;5.28;2.10;;;10.80;73.00;;;;;;5072221;28;20048;-40
2021/03/21 12:26:32;;;;;;;5.43;1.73;;;10.80;73.00;;;;;;5062077;28;20477;-40
2021/03/21 12:29:24;;;;;;;4.00;1.40;;;10.80;72.90;;;;;;5056971;28;20052;-41
2021/03/21 12:31:52;;;;;;;4.63;1.63;;;10.80;72.90;;;;;;5056551;28;20048;-44
2021/03/21 12:34:24;;;;;;;4.60;1.77;;;10.80;72.90;;;;;;5056518;28;20394;-44
2021/03/21 12:37:12;;;;;;;3.65;1.45;;;10.80;72.90;;;;;;5056244;28;20048;-42
2021/03/21 12:39:41;;;;;;;2.75;1.23;;;10.80;72.90;;;;;;5056475;28;20111;-44
2021/03/21 12:42:25;;;;;;;4.00;1.40;;;10.80;72.90;;;;;;5056450;28;20040;-41
2021/03/21 12:45:10;;;;;;;6.43;1.97;;;10.80;72.90;;;;;;5056358;28;20056;-41
2021/03/21 12:47:56;;;;;;;5.85;2.10;;;10.80;72.90;;;;;;5056480;28;20045;-44
2021/03/21 12:50:34;;;;;;;3.70;1.73;;;10.80;73.00;;;;;;5056540;28;20048;-43
2021/03/21 12:53:02;;;;;;;5.28;1.65;;;10.80;72.90;;;;;;5056026;28;20227;-40
2021/03/21 12:55:28;;;;;;;4.80;1.48;;;10.80;72.90;;;;;;5056228;28;20049;-43
2021/03/21 12:57:55;;;;;;;3.85;1.75;;;10.80;72.90;;;;;;5056144;28;20055;-42
2021/03/21 13:00:27;;;;;;;2.63;1.23;;;10.80;72.90;;;;;;5056383;28;20060;-41
2021/03/21 13:02:55;;;;;;;6.40;1.73;;;10.80;72.90;;;;;;5055921;28;20136;-42
2021/03/21 13:05:29;;;;;;;4.63;1.58;;;10.90;73.00;;;;;;5056100;28;20106;-42
2021/03/21 13:07:56;;;;;;;4.05;1.92;;;10.80;72.90;;;;;;5055653;28;20072;-42
2021/03/21 13:10:22;;;;;;;4.93;1.73;;;10.80;72.90;;;;;;5055941;28;20045;-42
2021/03/21 13:12:49;;;;;;;3.20;1.30;;;10.80;72.90;;;;;;5070243;28;20053;-42
2021/03/21 13:15:16;;;;;;;4.03;1.52;;;10.80;72.90;;;;;;5075885;28;20097;-43
2021/03/21 13:17:43;;;;;;;5.15;1.50;;;10.80;72.90;;;;;;5075965;28;20048;-40
2021/03/21 13:20:11;;;;;;;4.88;1.67;;;10.80;72.90;;;;;;5075952;28;20127;-42
2021/03/21 13:22:37;;;;;;;4.47;2.15;;;10.80;72.80;;;;;;5075629;28;20043;-42
2021/03/21 13:25:04;;;;;;;2.90;1.30;;;10.80;72.80;;;;;;5075674;28;20143;-39
2021/03/21 13:27:29;;;;;;;4.90;1.70;;;10.80;72.80;;;;;;5075604;28;20048;-41
2021/03/21 13:29:56;;;;;;;6.68;1.90;;;10.90;72.90;;;;;;5075527;28;20119;-42
2021/03/21 13:32:22;;;;;;;3.10;1.65;;;10.80;72.80;;;;;;5075766;28;20045;-42
2021/03/21 13:34:48;;;;;;;4.60;1.77;;;10.90;72.90;;;;;;5075627;28;20052;-42
2021/03/21 13:37:17;;;;;;;2.38;1.10;;;10.90;73.50;;;;;;5074835;28;20052;-45
2021/03/21 13:39:43;;;;;;;3.88;1.73;;;10.80;72.80;;;;;;5074891;28;20556;-43
2021/03/21 13:42:09;;;;;;;3.53;1.58;;;10.90;72.90;;;;;;5075144;28;20075;-44